SBPL/PNZ METAR and TAF weather

Enter ICAO airport designator
Station Type Date Time Source
SBPL METAR 2020/09/20 15:00 UTC NOAA

SBPL 201500Z 14008KT CAVOK 31/13 Q1014


Station Type Date Time Source
SBPL Decoded METAR 2020/09/20 15:00 UTC NOAA

Petrolina , Brazil (SBPL) 09-21S 040-33W
Sep 20, 2020 - 11:00 AM EDT / 2020.09.20 1500 UTC
Wind: from the SE (140 degrees) at 9 MPH (8 KT):0
Visibility: greater than 7 mile(s):0
Temperature: 87 F (31 C)
Dew Point: 55 F (13 C)
Relative Humidity: 33%
Pressure (altimeter): 29.94 in. Hg (1014 hPa)
ob: SBPL 201500Z 14008KT CAVOK 31/13 Q1014
cycle: 15

Station Type Date Time Source
SBPL TAF 2020/09/20 18:14 UTC NOAA

TAF SBPL 201500Z 2018/2118 15010KT CAVOK TN23/2109Z TX36/2117Z
BECMG 2109/2111 12015KT 9999 SCT025
BECMG 2113/2115 15010KT FEW030
RMK PGB

Example: see airport list